Time;durP1;ratioP1;P1;durP2;ratioP2;P2;SDS_P1;SDS_P2;PMS_P1;PMS_P2;Temp;Humidity;BMP_temperature;BMP_pressure;BME280_temperature;BME280_humidity;BME280_pressure;Samples;Min_cycle;Max_cycle;Signal;HPM_P1;HPM_P2
2022/11/04 00:02:07;;;;;;;;;24.50;23.75;;;;;16.94;61.35;101164.59;146608;596;46020;-76
2022/11/04 00:05:11;;;;;;;;;26.75;24.00;;;;;16.94;61.51;101160.22;146606;613;46016;-76
2022/11/04 00:08:23;;;;;;;;;25.00;23.00;;;;;16.95;61.51;101164.66;146603;605;46020;-76
2022/11/04 00:14:48;;;;;;;;;28.75;24.75;;;;;16.94;61.79;101162.84;146607;632;46012;-75
2022/11/04 00:17:55;;;;;;;;;26.00;22.00;;;;;16.90;61.67;101163.59;146604;575;46017;-75
2022/11/04 00:30:38;;;;;;;;;20.00;19.00;;;;;16.81;60.66;101148.47;146604;566;46016;-71
2022/11/04 00:33:39;;;;;;;;;29.50;22.00;;;;;16.81;61.14;101147.59;146608;641;46020;-71
2022/11/04 00:36:35;;;;;;;;;25.00;23.25;;;;;16.79;61.46;101147.56;146608;583;46014;-71
2022/11/04 00:39:41;;;;;;;;;24.50;20.75;;;;;16.82;61.08;101159.84;146607;584;46021;-72
2022/11/04 00:42:37;;;;;;;;;25.50;24.75;;;;;16.82;61.32;101154.59;146605;594;46016;-71
2022/11/04 00:45:52;;;;;;;;;25.50;21.00;;;;;16.83;61.12;101161.63;146606;600;46010;-72
2022/11/04 00:48:48;;;;;;;;;27.50;24.25;;;;;16.84;62.08;101152.94;146605;645;46012;-72
2022/11/04 00:51:46;;;;;;;;;31.75;28.50;;;;;16.82;62.29;101144.12;146609;626;46020;-73
2022/11/04 00:54:38;;;;;;;;;32.00;27.75;;;;;16.76;63.10;101150.06;146608;590;46014;-72
2022/11/04 00:57:41;;;;;;;;;21.50;17.25;;;;;16.71;63.15;101150.72;146606;638;46010;-72
2022/11/04 01:00:34;;;;;;;;;27.50;26.00;;;;;16.70;63.43;101143.69;146608;630;46014;-78
2022/11/04 01:03:26;;;;;;;;;31.75;28.00;;;;;16.70;63.80;101134.12;146606;578;45021;-78
2022/11/04 01:06:19;;;;;;;;;28.75;27.00;;;;;16.68;64.67;101129.66;146607;637;46012;-79
2022/11/04 01:09:13;;;;;;;;;32.75;28.25;;;;;16.71;64.58;101137.63;146605;608;47000;-74
2022/11/04 01:12:06;;;;;;;;;31.50;26.50;;;;;16.69;64.68;101134.06;146606;616;45016;-74
2022/11/04 01:15:01;;;;;;;;;24.75;22.25;;;;;16.65;64.03;101130.44;146606;591;45916;-74
2022/11/04 01:18:11;;;;;;;;;37.50;28.75;;;;;16.66;63.34;101132.22;146600;587;47016;-75
2022/11/04 01:21:10;;;;;;;;;32.75;29.25;;;;;16.65;64.43;101130.44;146607;588;46020;-75
2022/11/04 01:24:05;;;;;;;;;34.50;28.00;;;;;16.64;63.78;101131.31;146606;623;46012;-75
2022/11/04 01:27:02;;;;;;;;;34.25;31.25;;;;;16.62;64.01;101123.38;146606;566;46019;-75
2022/11/04 01:30:07;;;;;;;;;;;;;;;;;;;;;
2022/11/04 01:33:06;;;;;;;;;29.50;28.50;;;;;16.62;64.12;101123.38;146603;586;46021;-73
2022/11/04 01:36:17;;;;;;;;;;;;;;;;;;;;;
2022/11/04 01:39:09;;;;;;;;;25.75;22.25;;;;;16.61;63.72;101126.84;146606;622;46011;-74
2022/11/04 01:42:10;;;;;;;;;34.50;29.75;;;;;16.59;63.38;101120.66;146604;569;46016;-77
2022/11/04 01:45:07;;;;;;;;;30.00;26.25;;;;;16.58;63.95;101113.66;146607;621;46020;-77
2022/11/04 01:48:37;;;;;;;;;28.75;24.50;;;;;14.03;63.00;100665.00;146606;626;46016;-75
2022/11/04 01:51:36;;;;;;;;;28.00;24.75;;;;;16.55;64.12;101118.78;146610;594;46012;-76
2022/11/04 01:54:38;;;;;;;;;28.75;27.00;;;;;16.51;63.77;101116.91;146607;607;46013;-77
2022/11/04 01:57:42;;;;;;;;;35.25;29.50;;;;;16.53;63.74;101116.97;146606;581;46020;-76
2022/11/04 02:00:45;;;;;;;;;36.00;29.75;;;;;16.50;64.29;101111.63;146605;581;46035;-75
2022/11/04 02:04:35;;;;;;;;;;;;;;;;;;;;;
2022/11/04 02:07:40;;;;;;;;;26.25;25.75;;;;;16.48;63.18;101113.28;146601;605;46017;-74
2022/11/04 02:11:02;;;;;;;;;;;;;;;;;;;;;
2022/11/04 02:14:01;;;;;;;;;33.00;28.75;;;;;16.34;63.25;101111.09;146598;634;47914;-75
2022/11/04 02:16:58;;;;;;;;;28.75;27.50;;;;;16.27;64.02;101123.94;146607;591;46010;-76
2022/11/04 02:20:27;;;;;;;;;30.75;28.75;;;;;16.22;62.70;101121.16;146604;625;46016;-74
2022/11/04 02:24:12;;;;;;;;;31.00;27.00;;;;;13.54;62.31;100657.94;146606;577;46010;-72
2022/11/04 02:27:53;;;;;;;;;28.25;27.00;;;;;13.63;61.90;100679.12;146603;621;46916;-70
2022/11/04 02:31:46;;;;;;;;;30.50;29.00;;;;;13.48;61.99;100662.03;146606;590;46012;-75
2022/11/04 02:35:37;;;;;;;;;29.50;27.50;;;;;13.28;62.56;100633.50;146604;562;46016;-76
2022/11/04 02:39:12;;;;;;;;;32.75;30.00;;;;;12.94;63.27;100582.69;146606;638;46020;-73
2022/11/04 02:42:46;;;;;;;;;34.50;29.00;;;;;13.17;62.76;100639.97;146606;571;46016;-74
2022/11/04 02:45:55;;;;;;;;;37.75;30.75;;;;;15.74;64.14;101100.28;146609;610;45020;-74
2022/11/04 02:49:09;;;;;;;;;33.00;29.50;;;;;15.73;64.52;101102.81;146601;641;46916;-75
2022/11/04 02:52:17;;;;;;;;;33.25;26.50;;;;;15.69;65.24;101092.25;146607;612;46021;-75
2022/11/04 02:55:21;;;;;;;;;28.50;27.25;;;;;15.68;65.49;101087.87;146605;607;46014;-73
2022/11/04 02:58:20;;;;;;;;;31.25;27.25;;;;;15.70;65.48;101096.66;146606;606;46010;-75
2022/11/04 03:01:29;;;;;;;;;32.25;27.75;;;;;15.69;65.43;101089.62;146606;588;46013;-77
2022/11/04 03:04:34;;;;;;;;;31.00;27.75;;;;;15.68;65.57;101090.47;146605;593;46010;-75
2022/11/04 03:07:37;;;;;;;;;36.00;29.25;;;;;15.69;65.87;101094.87;146605;573;46014;-74
2022/11/04 03:10:43;;;;;;;;;33.25;29.25;;;;;15.70;66.84;101090.56;146606;587;46031;-74
2022/11/04 03:14:03;;;;;;;;;39.00;30.00;;;;;13.15;65.50;100646.84;146603;660;46017;-75
2022/11/04 03:17:06;;;;;;;;;28.75;25.75;;;;;15.67;66.57;101082.59;146602;577;46020;-74
2022/11/04 03:20:35;;;;;;;;;27.00;25.75;;;;;13.08;65.28;100639.63;146604;647;46016;-70
2022/11/04 03:23:47;;;;;;;;;33.00;25.00;;;;;12.92;65.46;100612.09;146607;668;46021;-70
2022/11/04 03:27:11;;;;;;;;;29.50;26.25;;;;;13.16;64.70;100651.22;146605;565;46012;-69
2022/11/04 03:30:21;;;;;;;;;31.50;27.50;;;;;15.72;64.91;101090.59;146607;579;46010;-69
2022/11/04 03:33:50;;;;;;;;;28.25;24.75;;;;;13.23;64.00;100655.84;146606;585;46012;-69
2022/11/04 03:37:09;;;;;;;;;27.50;25.50;;;;;13.37;64.36;100666.84;146608;597;46010;-74
2022/11/04 03:40:03;;;;;;;;;27.25;23.75;;;;;15.82;65.37;101101.44;146606;590;46014;-71
2022/11/04 03:43:24;;;;;;;;;29.00;24.75;;;;;15.85;63.96;101105.88;146607;615;46020;-72
2022/11/04 03:46:29;;;;;;;;;24.25;23.00;;;;;15.85;64.86;101100.66;146604;575;46012;-75
2022/11/04 03:49:26;;;;;;;;;25.00;24.00;;;;;15.83;64.89;101099.72;146606;609;46010;-77
2022/11/04 03:52:28;;;;;;;;;28.75;25.00;;;;;15.83;64.54;101097.13;146605;600;46017;-76
2022/11/04 03:55:33;;;;;;;;;26.00;23.50;;;;;15.84;64.87;101097.16;146605;695;46020;-76
2022/11/04 03:59:13;;;;;;;;;;;;;;;;;;;;;
2022/11/04 04:03:00;;;;;;;;;29.50;27.00;;;;;13.06;63.82;100620.47;146607;624;46020;-76
2022/11/04 04:06:24;;;;;;;;;34.50;31.50;;;;;15.92;64.48;101110.53;146606;619;46017;-74
2022/11/04 04:10:00;;;;;;;;;;;;;;;;;;;;;
2022/11/04 04:13:08;;;;;;;;;41.25;32.00;;;;;13.34;66.14;100653.72;146627;567;45017;-72
2022/11/04 04:16:53;;;;;;;;;36.00;32.25;;;;;13.46;65.78;100681.91;146627;575;45020;-73
2022/11/04 04:20:24;;;;;;;;;41.25;35.25;;;;;13.21;65.15;100644.50;146629;563;45016;-75
2022/11/04 04:30:06;;;;;;;;;38.25;31.00;;;;;15.92;69.07;101115.75;146628;742;45010;-76
2022/11/04 04:33:14;;;;;;;;;38.00;31.75;;;;;15.90;67.86;101112.19;146626;628;45010;-74
2022/11/04 04:36:15;;;;;;;;;43.50;33.50;;;;;15.89;69.85;101118.25;146630;576;45030;-74
2022/11/04 04:46:13;;;;;;;;;45.25;37.00;;;;;15.83;70.35;101108.47;146629;609;46012;-73
2022/11/04 04:49:21;;;;;;;;;38.50;33.00;;;;;15.85;70.15;101101.53;146627;597;46010;-74
2022/11/04 04:52:27;;;;;;;;;46.00;34.75;;;;;15.91;69.97;101107.00;146629;570;45017;-76
2022/11/04 04:55:22;;;;;;;;;36.50;31.75;;;;;16.00;69.91;101111.66;146625;579;46010;-75
2022/11/04 04:58:24;;;;;;;;;42.50;33.00;;;;;16.08;69.15;101110.22;146629;570;45013;-76
2022/11/04 05:01:25;;;;;;;;;38.75;32.25;;;;;16.16;69.51;101108.72;146630;601;45031;-75
2022/11/04 05:04:21;;;;;;;;;39.25;32.25;;;;;16.25;69.46;101102.94;146625;627;45916;-76
2022/11/04 05:07:17;;;;;;;;;40.50;31.50;;;;;16.35;69.34;101117.22;146625;573;46012;-75
2022/11/04 05:10:40;;;;;;;;;40.00;32.25;;;;;16.40;69.30;101111.31;146605;634;46014;-74
2022/11/04 05:13:33;;;;;;;;;34.25;30.50;;;;;16.48;68.71;101116.81;146606;599;46020;-80
2022/11/04 05:16:29;;;;;;;;;33.75;31.00;;;;;16.54;68.71;101118.72;146605;592;46014;-79
2022/11/04 05:19:21;;;;;;;;;42.00;33.50;;;;;16.58;68.25;101121.50;146603;572;46916;-79
2022/11/04 05:22:14;;;;;;;;;37.00;31.75;;;;;16.62;68.11;101122.50;146605;618;46016;-78
2022/11/04 05:25:07;;;;;;;;;43.25;35.25;;;;;16.66;67.78;101126.09;146605;565;46020;-73
2022/11/04 05:28:04;;;;;;;;;41.00;33.50;;;;;16.69;67.47;101134.06;146604;580;46016;-72
2022/11/04 05:30:59;;;;;;;;;42.75;34.50;;;;;16.69;68.16;101126.19;146606;582;46020;-73
2022/11/04 05:33:51;;;;;;;;;38.75;34.00;;;;;16.74;67.80;101128.13;146608;639;45023;-74
2022/11/04 05:36:47;;;;;;;;;42.00;34.75;;;;;16.81;67.70;101143.22;146608;584;46010;-73
2022/11/04 05:39:43;;;;;;;;;38.50;34.00;;;;;16.84;68.06;101134.59;146603;627;47010;-72
2022/11/04 05:42:40;;;;;;;;;44.00;37.00;;;;;16.87;68.07;101145.16;146604;603;46020;-76
2022/11/04 05:45:45;;;;;;;;;45.25;36.75;;;;;16.90;66.91;101147.00;146606;569;46016;-76
2022/11/04 05:48:37;;;;;;;;;44.50;34.75;;;;;16.89;67.80;101151.34;146608;575;46010;-76
2022/11/04 05:51:35;;;;;;;;;42.75;34.00;;;;;16.96;67.88;101152.44;146605;625;46016;-75
2022/11/04 05:54:38;;;;;;;;;43.00;34.00;;;;;16.98;67.32;101164.75;146608;605;46020;-77
2022/11/04 05:57:37;;;;;;;;;41.50;35.00;;;;;17.06;68.20;101162.37;146605;593;46013;-76
2022/11/04 06:00:41;;;;;;;;;36.50;32.25;;;;;17.13;68.35;101166.94;146603;638;47010;-76
2022/11/04 06:03:36;;;;;;;;;42.25;35.75;;;;;17.21;68.17;101167.22;146606;643;46012;-76
2022/11/04 06:06:37;;;;;;;;;46.00;34.00;;;;;17.33;68.31;101167.59;146607;592;46010;-78
2022/11/04 06:09:38;;;;;;;;;43.25;36.00;;;;;17.47;68.49;101166.25;146626;629;45016;-78
2022/11/04 06:12:47;;;;;;;;;40.00;33.75;;;;;15.30;67.23;100762.47;146627;564;45021;-75
2022/11/04 06:15:39;;;;;;;;;45.25;36.25;;;;;17.93;68.72;101172.00;146629;624;45016;-74
2022/11/04 06:18:40;;;;;;;;;42.50;34.50;;;;;18.19;68.13;101168.38;146629;647;45020;-74
2022/11/04 06:21:53;;;;;;;;;;;;;;;;;;;;;
2022/11/04 06:24:53;;;;;;;;;44.75;34.25;;;;;18.55;65.46;101183.31;146627;566;45026;-73
2022/11/04 06:27:50;;;;;;;;;43.50;34.75;;;;;18.61;65.30;101170.34;146628;564;45012;-74
2022/11/04 06:31:01;;;;;;;;;48.00;38.50;;;;;18.10;64.53;101076.28;146629;571;45020;-75
2022/11/04 06:33:53;;;;;;;;;47.00;39.00;;;;;18.71;66.15;101176.72;146626;569;46014;-74
2022/11/04 06:36:46;;;;;;;;;47.75;38.50;;;;;18.78;66.12;101173.41;146631;706;45010;-74
2022/11/04 06:39:44;;;;;;;;;47.25;37.50;;;;;18.87;65.81;101178.03;146627;763;45034;-74
2022/11/04 06:42:49;;;;;;;;;45.50;37.75;;;;;16.79;64.74;100801.88;146622;587;46012;-76
2022/11/04 06:46:03;;;;;;;;;44.25;35.00;;;;;19.07;64.48;101182.03;146628;641;45016;-75
2022/11/04 06:49:01;;;;;;;;;43.00;36.00;;;;;19.15;66.34;101183.09;146630;571;45020;-79
2022/11/04 06:51:53;;;;;;;;;47.00;38.00;;;;;19.36;66.31;101187.06;146626;574;45037;-75
2022/11/04 06:54:55;;;;;;;;;44.00;37.00;;;;;19.53;65.02;101188.34;146628;604;45020;-76
2022/11/04 06:57:47;;;;;;;;;43.00;34.00;;;;;19.64;65.08;101187.69;146627;569;45016;-70
2022/11/04 07:00:56;;;;;;;;;45.25;37.00;;;;;19.70;63.87;101186.13;146628;606;45020;-81
2022/11/04 07:04:04;;;;;;;;;;;;;;;;;;;;;
2022/11/04 07:07:02;;;;;;;;;44.00;37.00;;;;;19.73;64.92;101195.81;146625;665;45012;-80
2022/11/04 07:09:57;;;;;;;;;39.75;34.50;;;;;19.73;64.79;101193.19;146605;582;46916;-76
2022/11/04 07:12:58;;;;;;;;;46.50;37.75;;;;;19.74;65.13;101195.84;146605;613;46020;-77
2022/11/04 07:16:05;;;;;;;;;43.75;34.50;;;;;19.74;64.19;101190.56;146606;605;46012;-77
2022/11/04 07:19:03;;;;;;;;;41.75;35.75;;;;;19.76;65.35;101199.41;146608;569;46010;-77
2022/11/04 07:22:07;;;;;;;;;47.50;36.75;;;;;19.76;65.68;101190.63;146605;571;46016;-76
2022/11/04 07:25:01;;;;;;;;;43.50;34.25;;;;;19.74;65.13;101181.78;146626;588;47010;-77
2022/11/04 07:28:00;;;;;;;;;46.00;38.00;;;;;19.73;65.46;101182.66;146602;738;46016;-79
2022/11/04 07:30:52;;;;;;;;;45.00;37.25;;;;;19.71;65.63;101185.25;146607;569;46020;-73
2022/11/04 07:33:54;;;;;;;;;42.25;36.25;;;;;19.74;65.90;101179.16;146605;578;46016;-78
2022/11/04 07:36:46;;;;;;;;;48.75;39.50;;;;;19.92;66.41;101176.91;146609;740;46020;-75
2022/11/04 07:39:38;;;;;;;;;45.50;37.00;;;;;20.10;66.20;101176.41;146607;601;46016;-72
2022/11/04 07:42:31;;;;;;;;;43.25;33.00;;;;;20.36;64.95;101181.28;146605;578;46021;-73
2022/11/04 07:45:23;;;;;;;;;43.75;37.25;;;;;20.62;64.87;101177.38;146606;607;46016;-79
2022/11/04 07:48:15;;;;;;;;;45.25;37.25;;;;;20.85;63.41;101180.41;146612;604;45021;-80
2022/11/04 07:51:12;;;;;;;;;44.00;35.25;;;;;21.06;63.34;101176.34;146607;563;45016;-83
2022/11/04 07:54:07;;;;;;;;;43.50;36.00;;;;;21.23;62.80;101180.13;146608;588;46021;-79
2022/11/04 07:56:59;;;;;;;;;45.75;34.25;;;;;21.40;62.34;101175.13;146606;721;46016;-79
2022/11/04 07:59:58;;;;;;;;;45.75;37.00;;;;;21.55;60.91;101171.81;146607;685;46020;-80
2022/11/04 08:02:52;;;;;;;;;41.00;35.50;;;;;21.64;60.81;101177.22;146605;635;46013;-79
2022/11/04 08:05:45;;;;;;;;;45.75;35.00;;;;;21.74;61.26;101172.94;146606;570;46012;-78
2022/11/04 08:08:46;;;;;;;;;44.00;35.50;;;;;21.93;60.69;101169.63;146608;590;46025;-82
2022/11/04 08:11:39;;;;;;;;;48.00;37.75;;;;;22.10;60.29;101165.44;146613;581;46010;-80
2022/11/04 08:15:04;;;;;;;;;35.50;30.50;;;;;20.03;59.27;100783.19;146607;598;46016;-82
2022/11/04 08:17:56;;;;;;;;;43.50;36.00;;;;;22.38;59.39;101163.13;146615;570;46011;-81
2022/11/04 08:21:01;;;;;;;;;46.75;37.00;;;;;22.48;59.23;101165.00;146612;633;46916;-85
2022/11/04 08:23:53;;;;;;;;;43.00;35.00;;;;;22.60;58.66;101159.81;146614;597;46013;-80
2022/11/04 08:26:46;;;;;;;;;47.50;38.25;;;;;22.71;58.27;101151.09;146610;609;46014;-82
2022/11/04 08:29:40;;;;;;;;;47.50;38.25;;;;;22.78;57.61;101155.56;146613;649;47012;-78
2022/11/04 08:32:34;;;;;;;;;46.25;38.50;;;;;22.75;57.83;101134.41;146608;578;47016;-83
2022/11/04 08:35:32;;;;;;;;;45.50;36.00;;;;;22.71;58.09;101143.16;146611;565;48010;-84
2022/11/04 08:38:28;;;;;;;;;46.75;37.00;;;;;22.69;58.37;101142.28;146611;681;46012;-81
2022/11/04 08:41:35;;;;;;;;;45.50;36.50;;;;;22.78;58.70;101137.06;146613;590;46020;-80
2022/11/04 08:44:30;;;;;;;;;45.00;37.50;;;;;22.90;57.90;101139.81;146612;714;45016;-84
2022/11/04 08:47:23;;;;;;;;;46.25;38.00;;;;;23.05;58.02;101139.94;146614;581;46011;-82
2022/11/04 08:50:30;;;;;;;;;41.50;32.50;;;;;23.22;57.60;101133.88;146609;625;46916;-81
2022/11/04 08:53:30;;;;;;;;;43.75;36.00;;;;;23.39;56.92;101136.59;146611;627;46021;-82
2022/11/04 08:56:35;;;;;;;;;43.00;34.00;;;;;23.46;56.31;101128.72;146612;632;46012;-78
2022/11/04 08:59:37;;;;;;;;;42.50;35.25;;;;;23.46;56.42;101128.72;146613;570;47012;-80
2022/11/04 09:02:30;;;;;;;;;46.00;37.00;;;;;23.47;56.70;101135.75;146606;564;46039;-78
2022/11/04 09:05:26;;;;;;;;;38.00;33.25;;;;;23.51;56.58;101126.06;146609;576;49012;-70
2022/11/04 09:08:25;;;;;;;;;44.25;37.25;;;;;23.60;56.98;101120.81;146610;567;46012;-70
2022/11/04 09:11:25;;;;;;;;;43.00;34.25;;;;;23.68;56.25;101113.81;146607;620;46020;-74
2022/11/04 09:14:33;;;;;;;;;40.75;34.25;;;;;23.68;55.96;101112.91;146606;563;46014;-75
2022/11/04 09:17:42;;;;;;;;;42.25;35.75;;;;;23.67;56.56;101116.44;146607;598;46021;-77
2022/11/04 09:20:37;;;;;;;;;44.25;36.50;;;;;23.79;56.66;101116.50;146609;627;46012;-80
2022/11/04 09:23:37;;;;;;;;;40.75;34.50;;;;;23.89;55.89;101106.81;146608;578;46010;-73
2022/11/04 09:26:48;;;;;;;;;44.25;36.75;;;;;21.87;56.38;100748.09;146602;586;46016;-72
2022/11/04 09:29:56;;;;;;;;;36.50;29.25;;;;;23.96;56.13;101096.25;146609;603;46010;-77
2022/11/04 09:33:05;;;;;;;;;;;;;;;;;;;;;
2022/11/04 09:36:20;;;;;;;;;40.00;32.50;;;;;24.07;55.79;101085.66;146606;580;46020;-77
2022/11/04 09:39:20;;;;;;;;;40.25;34.00;;;;;24.10;55.71;101074.19;146605;601;46016;-75
2022/11/04 09:42:54;;;;;;;;;43.25;34.25;;;;;24.18;55.05;101072.44;146604;576;47010;-77
2022/11/04 09:45:55;;;;;;;;;43.50;34.75;;;;;24.27;55.28;101069.81;146604;595;46017;-78
2022/11/04 09:48:56;;;;;;;;;37.50;31.50;;;;;24.33;54.79;101060.94;146607;591;46020;-79
2022/11/04 09:51:56;;;;;;;;;39.50;33.50;;;;;24.38;54.56;101064.50;146607;637;46017;-79
2022/11/04 09:55:04;;;;;;;;;43.50;36.00;;;;;24.37;54.60;101062.75;146608;615;46010;-76
2022/11/04 09:57:44;;;;;;;;;42.50;34.00;;;;;24.35;53.84;101051.25;146704;567;46022;-77
2022/11/04 10:00:59;;;;;;;;;;;;;;;;;;;;;
2022/11/04 10:05:01;;;;;;;;;36.75;30.75;;;;;24.27;54.31;101037.09;146618;584;46011;-78
2022/11/04 10:08:26;;;;;;;;;32.25;28.00;;;;;24.40;54.43;101030.94;146614;565;46016;-78
2022/11/04 10:12:05;;;;;;;;;37.25;31.00;;;;;24.43;54.12;101023.03;146622;611;46021;-77
2022/11/04 10:15:32;;;;;;;;;34.75;29.75;;;;;24.51;54.48;101015.03;146708;565;46012;-77
2022/11/04 10:19:07;;;;;;;;;;;;;;;;;;;;;
2022/11/04 10:22:47;;;;;;;;;42.50;34.25;;;;;23.77;53.69;100831.41;146622;615;46010;-76
2022/11/04 10:26:01;;;;;;;;;39.50;32.00;;;;;24.89;53.35;100997.28;146617;622;46014;-77
2022/11/04 10:29:33;;;;;;;;;39.75;32.75;;;;;25.01;52.53;100995.47;146622;575;46030;-78
2022/11/04 10:33:38;;;;;;;;;;;;;;;;;;;;;
2022/11/04 10:36:34;;;;;;;;;38.25;31.75;;;;;25.09;52.53;100973.31;146622;646;46020;-79
2022/11/04 10:39:36;;;;;;;;;45.50;35.50;;;;;25.06;52.62;100969.81;146616;564;46918;-78
2022/11/04 10:42:32;;;;;;;;;40.75;33.25;;;;;24.98;52.89;100960.97;146621;650;46020;-77
2022/11/04 10:45:49;;;;;;;;;43.50;34.25;;;;;24.88;53.50;100953.06;146618;600;46014;-78
2022/11/04 10:49:31;;;;;;;;;42.50;34.75;;;;;24.91;53.58;100952.19;146623;569;46010;-77
2022/11/04 10:52:28;;;;;;;;;39.75;32.50;;;;;24.88;53.68;100946.88;146618;570;46012;-77
2022/11/04 10:55:46;;;;;;;;;44.25;35.50;;;;;24.91;53.87;100946.88;146623;610;46010;-77
2022/11/04 10:58:47;;;;;;;;;47.25;37.75;;;;;24.95;53.29;100945.97;146618;584;46012;-77
2022/11/04 11:02:08;;;;;;;;;37.75;32.25;;;;;23.03;53.28;100602.19;146613;583;48010;-79
2022/11/04 11:05:35;;;;;;;;;44.50;35.00;;;;;24.97;54.14;100930.06;146617;572;46016;-77
2022/11/04 11:08:37;;;;;;;;;42.75;35.25;;;;;23.04;54.44;100603.94;146621;596;46010;-77
2022/11/04 11:11:50;;;;;;;;;42.75;35.25;;;;;24.92;53.93;100926.53;146618;606;46017;-79
2022/11/04 11:14:47;;;;;;;;;42.75;34.75;;;;;24.86;54.04;100914.19;146621;581;46020;-77
2022/11/04 11:17:45;;;;;;;;;39.00;33.00;;;;;24.90;53.71;100907.97;146614;593;46017;-73
2022/11/04 11:20:42;;;;;;;;;40.00;34.00;;;;;24.89;53.64;100901.81;146622;602;46010;-75
2022/11/04 11:24:00;;;;;;;;;42.75;35.50;;;;;24.87;53.85;100898.25;146617;634;46012;-75
2022/11/04 11:27:24;;;;;;;;;;;;;;;;;;;;;
2022/11/04 11:30:30;;;;;;;;;42.25;35.50;;;;;23.93;53.56;100712.22;146616;579;46012;-79
2022/11/04 11:33:37;;;;;;;;;41.25;34.00;;;;;24.98;54.01;100886.72;146621;572;46010;-79
2022/11/04 11:36:43;;;;;;;;;43.50;36.00;;;;;25.03;53.99;100884.91;146616;578;46016;-82
2022/11/04 11:39:44;;;;;;;;;42.50;35.25;;;;;25.12;53.79;100884.87;146624;633;46010;-79
2022/11/04 11:42:40;;;;;;;;;39.00;33.00;;;;;25.23;52.84;100884.81;146619;563;46917;-81
2022/11/04 11:45:36;;;;;;;;;42.25;34.50;;;;;25.31;53.65;100881.22;146622;592;46020;-81
2022/11/04 11:48:46;;;;;;;;;38.50;31.75;;;;;25.46;53.41;100872.28;146617;565;46016;-83
2022/11/04 11:51:43;;;;;;;;;38.75;33.75;;;;;25.60;52.84;100869.50;146620;611;46020;-82
2022/11/04 11:54:43;;;;;;;;;42.00;34.75;;;;;25.76;52.54;100864.94;146618;577;46012;-81
2022/11/04 11:58:23;;;;;;;;;38.50;32.50;;;;;25.92;51.91;100866.63;146620;563;46020;-80
2022/11/04 12:01:51;;;;;;;;;41.75;34.25;;;;;25.93;52.52;100855.09;146619;649;46013;-79
2022/11/04 12:04:56;;;;;;;;;39.25;32.00;;;;;25.86;52.23;100852.47;146622;600;46010;-80
2022/11/04 12:08:33;;;;;;;;;41.00;35.25;;;;;25.76;52.79;100851.66;146618;738;46012;-81
2022/11/04 12:11:39;;;;;;;;;35.75;31.50;;;;;24.82;52.85;100695.84;146623;606;46010;-80
2022/11/04 12:15:11;;;;;;;;;43.25;34.50;;;;;25.62;52.97;100845.59;146618;636;46012;-84
2022/11/04 12:18:45;;;;;;;;;42.50;34.25;;;;;25.48;53.38;100837.75;146622;671;46020;-80
2022/11/04 12:22:27;;;;;;;;;34.25;29.75;;;;;24.39;53.48;100659.03;146616;563;47012;-81
2022/11/04 12:26:09;;;;;;;;;39.50;33.50;;;;;25.24;53.73;100812.31;146620;738;46010;-82
2022/11/04 12:29:41;;;;;;;;;35.00;30.00;;;;;25.31;53.53;100816.66;146616;589;46016;-79
2022/11/04 12:33:08;;;;;;;;;37.75;31.00;;;;;25.50;53.14;100823.56;146621;569;46010;-80
2022/11/04 12:36:33;;;;;;;;;39.50;34.00;;;;;25.68;53.11;100821.66;146617;598;46016;-81
2022/11/04 12:40:11;;;;;;;;;39.50;32.50;;;;;25.87;52.80;100822.38;146622;642;46008;-82
2022/11/04 12:43:32;;;;;;;;;35.00;31.25;;;;;26.01;52.36;100818.69;146618;669;46012;-78
2022/11/04 12:46:58;;;;;;;;;28.75;27.50;;;;;26.09;52.04;100812.41;146622;613;46010;-79
2022/11/04 12:50:31;;;;;;;;;39.75;33.50;;;;;26.00;52.11;100803.63;146615;571;46016;-83
2022/11/04 12:54:02;;;;;;;;;37.00;32.00;;;;;26.06;52.50;100808.00;146619;613;47010;-82
2022/11/04 12:57:31;;;;;;;;;40.00;34.00;;;;;26.25;52.09;100808.66;146609;591;48012;-82
2022/11/04 13:00:37;;;;;;;;;43.00;35.25;;;;;26.41;51.60;100793.41;146623;590;46010;-80
2022/11/04 13:03:43;;;;;;;;;35.25;31.50;;;;;26.52;50.23;100799.50;146619;591;46012;-81
2022/11/04 13:06:59;;;;;;;;;40.25;32.50;;;;;26.59;51.15;100793.19;146620;628;46012;-81
2022/11/04 13:10:21;;;;;;;;;40.75;34.00;;;;;26.69;51.56;100793.94;146618;613;46035;-83
2022/11/04 13:13:54;;;;;;;;;;;;;;;;;;;;;
2022/11/04 13:17:00;;;;;;;;;37.25;31.00;;;;;26.83;50.92;100791.09;146611;597;46016;-79
2022/11/04 13:20:34;;;;;;;;;36.75;31.75;;;;;26.78;51.63;100790.28;146615;634;46010;-81
2022/11/04 13:23:51;;;;;;;;;31.75;29.50;;;;;26.82;49.92;100782.25;146612;617;45021;-81
2022/11/04 13:27:07;;;;;;;;;38.00;30.50;;;;;26.83;50.24;100780.47;146613;571;46020;-80
2022/11/04 13:30:26;;;;;;;;;33.25;28.75;;;;;26.79;49.34;100778.72;146610;565;46036;-80
2022/11/04 13:33:41;;;;;;;;;32.25;28.75;;;;;26.70;48.54;100780.66;146613;597;46020;-81
2022/11/04 13:37:07;;;;;;;;;33.50;29.00;;;;;26.67;50.81;100774.50;146611;600;46012;-79
2022/11/04 13:40:16;;;;;;;;;37.00;29.50;;;;;26.73;48.96;100774.41;146609;609;47010;-80
2022/11/04 13:43:45;;;;;;;;;34.50;30.75;;;;;26.58;49.29;100756.88;146610;570;46016;-80
2022/11/04 13:46:40;;;;;;;;;31.50;27.75;;;;;26.51;47.92;100768.47;146614;590;46012;-81
2022/11/04 13:49:53;;;;;;;;;36.50;30.25;;;;;25.46;50.23;100601.50;146609;728;46016;-86
2022/11/04 13:52:59;;;;;;;;;31.25;29.50;;;;;26.19;49.59;100759.13;146613;669;46011;-85
2022/11/04 13:56:10;;;;;;;;;34.25;27.75;;;;;26.00;50.84;100754.94;146610;592;46012;-80
2022/11/04 13:59:26;;;;;;;;;33.25;30.00;;;;;25.86;50.78;100759.50;146613;613;46020;-82
2022/11/04 14:02:44;;;;;;;;;31.75;29.00;;;;;25.63;51.28;100760.59;146612;563;45918;-83
2022/11/04 14:06:14;;;;;;;;;36.50;30.00;;;;;24.23;52.81;100561.94;146613;652;46010;-82
2022/11/04 14:09:38;;;;;;;;;38.75;31.50;;;;;25.22;52.80;100756.56;146610;585;46014;-83
2022/11/04 14:12:39;;;;;;;;;33.75;29.25;;;;;25.14;53.36;100757.53;146613;563;46020;-81
2022/11/04 14:16:16;;;;;;;;;34.00;30.00;;;;;25.06;53.66;100758.44;146617;608;46012;-83
2022/11/04 14:19:56;;;;;;;;;23.25;20.00;;;;;25.02;53.48;100764.66;146616;762;46012;-82
2022/11/04 14:23:13;;;;;;;;;35.00;28.50;;;;;24.88;53.91;100753.25;146620;613;46016;-82
2022/11/04 14:26:15;;;;;;;;;37.00;31.50;;;;;24.71;54.10;100757.81;146617;583;47010;-82
2022/11/04 14:29:39;;;;;;;;;34.00;31.25;;;;;24.55;54.37;100755.25;146619;611;45918;-81
2022/11/04 14:32:44;;;;;;;;;39.25;33.25;;;;;24.37;55.18;100761.50;146623;588;45021;-83
2022/11/04 14:35:49;;;;;;;;;34.75;30.75;;;;;24.17;55.60;100760.69;146618;573;46012;-83
2022/11/04 14:39:06;;;;;;;;;40.00;32.50;;;;;23.97;56.58;100753.69;146621;627;46010;-83
2022/11/04 14:42:08;;;;;;;;;34.00;31.00;;;;;23.77;56.63;100759.94;146619;571;45915;-80
2022/11/04 14:45:26;;;;;;;;;33.00;29.00;;;;;23.58;56.85;100751.97;146623;736;45023;-82
2022/11/04 14:48:25;;;;;;;;;35.75;31.00;;;;;23.43;56.97;100757.31;146618;577;45916;-81
2022/11/04 14:51:51;;;;;;;;;38.75;33.50;;;;;23.25;57.69;100747.62;146619;651;46020;-83
2022/11/04 14:54:44;;;;;;;;;40.00;33.25;;;;;23.15;58.32;100752.03;146617;571;46016;-79
2022/11/04 14:57:47;;;;;;;;;37.00;30.75;;;;;23.03;58.25;100757.31;146620;591;46020;-78
2022/11/04 15:00:53;;;;;;;;;41.50;32.25;;;;;22.90;59.20;100753.75;146616;576;46017;-78
2022/11/04 15:03:46;;;;;;;;;36.50;32.25;;;;;22.72;60.54;100749.31;146622;577;46010;-79
2022/11/04 15:06:38;;;;;;;;;44.00;35.00;;;;;22.55;61.52;100753.66;146617;571;47016;-80